createdAt,value
2023-01-15T00:02:18.068Z,29.33
2023-01-15T00:04:45.553Z,31.12
2023-01-15T00:07:12.707Z,29.92
2023-01-15T00:09:39.858Z,23.50
2023-01-15T00:12:07.463Z,30.30
2023-01-15T00:14:34.630Z,27.42
2023-01-15T00:17:01.753Z,27.73
2023-01-15T00:19:29.137Z,28.17
2023-01-15T00:21:56.362Z,28.40
2023-01-15T00:24:41.875Z,29.70
2023-01-15T00:27:29.710Z,24.77
2023-01-15T00:29:56.965Z,26.40
2023-01-15T00:32:27.745Z,24.08
2023-01-15T00:34:55.899Z,28.38
2023-01-15T00:37:23.069Z,28.10
2023-01-15T00:39:50.463Z,28.55
2023-01-15T00:42:18.021Z,26.75
2023-01-15T00:44:46.772Z,22.13
2023-01-15T00:47:15.219Z,18.90
2023-01-15T00:49:43.106Z,17.95
2023-01-15T00:52:11.179Z,16.92
2023-01-15T00:54:38.768Z,19.23
2023-01-15T00:57:05.895Z,20.05
2023-01-15T00:59:33.071Z,23.48
2023-01-15T01:02:00.609Z,21.62
2023-01-15T01:04:27.950Z,20.70
2023-01-15T01:06:55.593Z,22.67
2023-01-15T01:09:23.032Z,22.15
2023-01-15T01:11:50.316Z,24.70
2023-01-15T01:14:17.481Z,22.00
2023-01-15T01:16:45.036Z,26.17
2023-01-15T01:19:20.762Z,22.70
2023-01-15T01:21:49.043Z,23.20
2023-01-15T01:24:22.365Z,20.08
2023-01-15T01:26:53.402Z,23.12
2023-01-15T01:29:22.686Z,19.58
2023-01-15T01:31:51.171Z,20.12
2023-01-15T01:34:18.754Z,23.33
2023-01-15T01:36:46.164Z,21.40
2023-01-15T01:39:16.186Z,23.95
2023-01-15T01:41:44.131Z,19.27
2023-01-15T01:44:33.083Z,19.37
2023-01-15T01:47:01.972Z,18.85
2023-01-15T01:49:29.428Z,22.25
2023-01-15T01:51:59.846Z,19.20
2023-01-15T01:54:29.429Z,18.73
2023-01-15T01:56:56.660Z,16.80
2023-01-15T01:59:25.294Z,15.38
2023-01-15T02:01:53.603Z,21.10
2023-01-15T02:04:22.846Z,24.85
2023-01-15T02:06:51.256Z,17.33
2023-01-15T02:09:18.840Z,17.48
2023-01-15T02:11:46.457Z,18.42
2023-01-15T02:14:18.009Z,19.25
2023-01-15T02:17:01.398Z,18.30
2023-01-15T02:19:47.674Z,15.98
2023-01-15T02:22:14.740Z,16.30
2023-01-15T02:24:45.111Z,18.45
2023-01-15T02:27:16.181Z,21.48
2023-01-15T02:29:52.246Z,14.27
2023-01-15T02:32:31.661Z,18.17
2023-01-15T02:35:06.058Z,14.80
2023-01-15T02:37:36.833Z,18.23
2023-01-15T02:40:07.316Z,16.42
2023-01-15T02:42:36.730Z,17.55
2023-01-15T02:45:07.967Z,17.02
2023-01-15T02:47:38.745Z,16.70
2023-01-15T02:50:09.614Z,15.27
2023-01-15T02:52:42.638Z,22.42
2023-01-15T02:55:35.350Z,17.83
2023-01-15T02:58:06.665Z,15.70
2023-01-15T03:00:36.569Z,20.75
2023-01-15T03:03:42.323Z,16.17
2023-01-15T03:06:24.293Z,15.13
2023-01-15T03:08:52.095Z,25.50
2023-01-15T03:11:20.152Z,17.02
2023-01-15T03:13:51.939Z,18.73
2023-01-15T03:16:35.486Z,23.08
2023-01-15T03:19:24.516Z,15.07
2023-01-15T03:21:57.132Z,18.75
2023-01-15T03:24:29.439Z,17.87
2023-01-15T03:26:57.829Z,17.50
2023-01-15T03:29:29.477Z,18.10
2023-01-15T03:31:57.104Z,17.67
2023-01-15T03:34:32.395Z,18.00
2023-01-15T03:36:59.842Z,17.75
2023-01-15T03:39:28.254Z,20.25
2023-01-15T03:42:05.016Z,17.95
2023-01-15T03:44:47.887Z,15.63
2023-01-15T03:47:27.312Z,14.63
2023-01-15T03:50:18.519Z,21.73
2023-01-15T03:52:49.375Z,16.12
2023-01-15T03:55:22.950Z,16.17
2023-01-15T03:57:58.155Z,16.70
2023-01-15T04:00:27.807Z,15.95
2023-01-15T04:02:56.760Z,18.37
2023-01-15T04:05:26.893Z,15.50
2023-01-15T04:07:54.963Z,16.87
2023-01-15T04:10:22.971Z,16.92
2023-01-15T04:12:50.451Z,15.18
2023-01-15T04:15:19.216Z,15.90
2023-01-15T04:17:46.866Z,13.35
2023-01-15T04:20:14.607Z,14.15
2023-01-15T04:22:41.962Z,16.90
2023-01-15T04:25:09.979Z,14.23
2023-01-15T04:27:37.447Z,14.50
2023-01-15T04:30:04.949Z,14.65
2023-01-15T04:32:32.311Z,17.42
2023-01-15T04:35:01.037Z,15.32
2023-01-15T04:37:28.100Z,17.80
2023-01-15T04:39:55.576Z,15.85
2023-01-15T04:42:41.364Z,13.90
2023-01-15T04:45:09.405Z,15.82
2023-01-15T04:47:36.573Z,17.40
2023-01-15T04:50:03.805Z,13.07
2023-01-15T04:52:31.224Z,16.23
2023-01-15T04:54:58.349Z,14.43
2023-01-15T04:57:25.479Z,14.35
2023-01-15T04:59:52.902Z,17.58
2023-01-15T05:02:20.122Z,17.87
2023-01-15T05:04:47.384Z,16.10
2023-01-15T05:07:14.919Z,15.52
2023-01-15T05:09:42.033Z,14.65
2023-01-15T05:12:09.095Z,14.63
2023-01-15T05:14:36.434Z,15.85
2023-01-15T05:17:03.611Z,15.75
2023-01-15T05:19:30.778Z,12.02
2023-01-15T05:21:58.137Z,15.40
2023-01-15T05:24:25.259Z,16.00
2023-01-15T05:26:52.442Z,15.98
2023-01-15T05:29:19.898Z,15.00
2023-01-15T05:31:47.029Z,13.77
2023-01-15T05:34:14.235Z,16.58
2023-01-15T05:36:41.947Z,13.10
2023-01-15T05:39:09.112Z,16.37
2023-01-15T05:41:51.471Z,15.63
2023-01-15T05:44:24.471Z,15.05
2023-01-15T05:46:53.653Z,17.20
2023-01-15T05:49:23.958Z,14.57
2023-01-15T05:51:51.684Z,19.37
2023-01-15T05:54:21.575Z,14.87
2023-01-15T05:56:49.226Z,13.75
2023-01-15T05:59:18.222Z,16.80
2023-01-15T06:01:45.379Z,15.13
2023-01-15T06:04:21.458Z,14.20
2023-01-15T06:06:50.061Z,15.48
2023-01-15T06:09:18.104Z,16.35
2023-01-15T06:11:45.524Z,17.20
2023-01-15T06:14:12.736Z,17.42
2023-01-15T06:16:41.448Z,15.13
2023-01-15T06:19:09.716Z,17.17
2023-01-15T06:21:36.916Z,19.02
2023-01-15T06:24:04.727Z,14.98
2023-01-15T06:26:33.342Z,21.52
2023-01-15T06:29:00.537Z,18.62
2023-01-15T06:31:28.157Z,18.77
2023-01-15T06:33:55.599Z,18.00
2023-01-15T06:36:24.569Z,18.02
2023-01-15T06:38:52.096Z,15.52
2023-01-15T06:41:40.498Z,17.62
2023-01-15T06:44:34.198Z,16.80
2023-01-15T06:47:23.819Z,15.73
2023-01-15T06:49:55.619Z,19.62
2023-01-15T06:52:24.167Z,20.08
2023-01-15T06:54:52.627Z,17.12
2023-01-15T06:57:19.885Z,18.58
2023-01-15T06:59:48.471Z,17.73
2023-01-15T07:02:15.887Z,19.62
2023-01-15T07:04:43.000Z,21.90
2023-01-15T07:07:10.167Z,21.80
2023-01-15T07:09:37.586Z,18.85
2023-01-15T07:12:04.811Z,22.35
2023-01-15T07:14:33.157Z,23.38
2023-01-15T07:17:00.651Z,18.87
2023-01-15T07:19:27.867Z,19.05
2023-01-15T07:21:55.116Z,17.45
2023-01-15T07:24:22.589Z,17.80
2023-01-15T07:26:49.818Z,22.48
2023-01-15T07:29:17.181Z,20.83
2023-01-15T07:31:44.598Z,18.65
2023-01-15T07:34:11.793Z,18.25
2023-01-15T07:36:38.991Z,20.92
2023-01-15T07:39:08.157Z,22.58
2023-01-15T07:41:54.212Z,21.50
2023-01-15T07:44:41.321Z,19.98
2023-01-15T07:47:52.936Z,24.92
2023-01-15T07:50:22.541Z,19.08
2023-01-15T07:52:52.831Z,20.40
2023-01-15T07:55:21.061Z,21.98
2023-01-15T07:57:48.180Z,23.60
2023-01-15T08:00:20.992Z,25.95
2023-01-15T08:02:50.705Z,22.37
2023-01-15T08:05:18.371Z,22.10
2023-01-15T08:07:45.770Z,24.98
2023-01-15T08:10:14.109Z,23.23
2023-01-15T08:13:00.561Z,20.98
2023-01-15T08:15:39.073Z,25.10
2023-01-15T08:18:07.111Z,23.52
2023-01-15T08:20:36.379Z,31.27
2023-01-15T08:23:03.483Z,22.42
2023-01-15T08:25:30.672Z,28.33
2023-01-15T08:28:02.282Z,27.20
2023-01-15T08:30:29.551Z,28.33
2023-01-15T08:33:02.337Z,25.55
2023-01-15T08:35:29.787Z,26.30
2023-01-15T08:37:56.860Z,21.70
2023-01-15T08:40:24.005Z,27.37
2023-01-15T08:42:51.354Z,26.20
2023-01-15T08:45:18.446Z,26.92
2023-01-15T08:47:45.511Z,24.15
2023-01-15T08:50:12.957Z,20.98
2023-01-15T08:52:40.054Z,22.15
2023-01-15T08:55:07.795Z,22.00
2023-01-15T08:57:35.614Z,25.45
2023-01-15T09:00:02.717Z,22.92
2023-01-15T09:02:30.877Z,20.77
2023-01-15T09:04:58.351Z,27.55
2023-01-15T09:07:25.540Z,25.08
2023-01-15T09:09:52.643Z,24.75
2023-01-15T09:12:20.147Z,26.80
2023-01-15T09:14:57.655Z,28.05
2023-01-15T09:17:31.495Z,22.90
2023-01-15T09:19:58.644Z,21.80
2023-01-15T09:22:30.066Z,21.73
2023-01-15T09:24:57.907Z,19.62
2023-01-15T09:27:25.217Z,17.87
2023-01-15T09:29:52.381Z,18.45
2023-01-15T09:32:19.753Z,19.92
2023-01-15T09:34:46.834Z,22.60
2023-01-15T09:37:14.000Z,20.02
2023-01-15T09:39:41.377Z,19.58
2023-01-15T09:42:17.512Z,20.58
2023-01-15T09:44:52.786Z,18.67
2023-01-15T09:47:39.860Z,23.33
2023-01-15T09:50:41.096Z,20.98
2023-01-15T09:53:23.880Z,19.05
2023-01-15T09:55:52.713Z,22.08
2023-01-15T09:58:31.518Z,20.15
2023-01-15T10:00:59.819Z,17.05
2023-01-15T10:03:56.841Z,22.30
2023-01-15T10:06:29.679Z,16.85
2023-01-15T10:09:11.497Z,18.95
2023-01-15T10:12:01.808Z,23.02
2023-01-15T10:14:39.485Z,22.00
2023-01-15T10:17:18.271Z,18.37
2023-01-15T10:19:45.718Z,19.95
2023-01-15T10:22:45.835Z,19.67
2023-01-15T10:25:16.800Z,17.27
2023-01-15T10:27:48.754Z,23.83
2023-01-15T10:30:37.531Z,17.35
2023-01-15T10:33:22.147Z,21.92
2023-01-15T10:36:10.665Z,18.67
2023-01-15T10:39:00.118Z,16.80
2023-01-15T10:41:55.658Z,16.80
2023-01-15T10:45:01.534Z,15.23
2023-01-15T10:47:39.312Z,16.25
2023-01-15T10:50:17.255Z,18.05
2023-01-15T10:52:48.644Z,17.17
2023-01-15T10:55:25.152Z,16.00
2023-01-15T10:58:10.261Z,17.42
2023-01-15T11:00:39.008Z,15.13
2023-01-15T11:03:18.230Z,13.57
2023-01-15T11:05:48.882Z,14.82
2023-01-15T11:09:08.446Z,16.65
2023-01-15T11:11:59.538Z,16.50
2023-01-15T11:14:55.882Z,17.42
2023-01-15T11:17:44.805Z,14.75
2023-01-15T11:20:25.432Z,14.18
2023-01-15T11:22:53.079Z,13.57
2023-01-15T11:25:31.739Z,14.32
2023-01-15T11:28:01.631Z,16.30
2023-01-15T11:30:31.776Z,13.82
2023-01-15T11:33:06.502Z,20.20
2023-01-15T11:35:34.849Z,16.45
2023-01-15T11:38:06.776Z,36.28
2023-01-15T11:40:34.582Z,13.98
2023-01-15T11:43:20.331Z,14.55
2023-01-15T11:46:08.724Z,16.55
2023-01-15T11:49:05.779Z,15.70
2023-01-15T11:51:42.715Z,15.60
2023-01-15T11:54:12.900Z,12.95
2023-01-15T11:56:43.346Z,17.80
2023-01-15T11:59:12.872Z,11.70
2023-01-15T12:01:50.415Z,24.27
2023-01-15T12:04:37.435Z,12.98
2023-01-15T12:07:06.419Z,12.60
2023-01-15T12:09:39.848Z,18.30
2023-01-15T12:12:13.137Z,16.10
2023-01-15T12:14:49.684Z,14.90
2023-01-15T12:17:32.096Z,14.63
2023-01-15T12:20:46.889Z,17.17
2023-01-15T12:23:49.002Z,17.98
2023-01-15T12:26:26.636Z,21.33
2023-01-15T12:29:09.445Z,19.92
2023-01-15T12:31:47.033Z,13.07
2023-01-15T12:34:32.368Z,10.38
2023-01-15T12:37:06.655Z,17.23
2023-01-15T12:39:46.595Z,17.77
2023-01-15T12:42:36.173Z,12.95
2023-01-15T12:45:07.854Z,17.87
2023-01-15T12:47:45.903Z,14.55
2023-01-15T12:50:22.430Z,12.55
2023-01-15T12:52:54.528Z,18.67
2023-01-15T12:55:34.705Z,13.38
2023-01-15T12:58:03.211Z,16.12
2023-01-15T13:00:43.356Z,18.17
2023-01-15T13:03:55.852Z,16.27
2023-01-15T13:06:25.665Z,24.98
2023-01-15T13:09:02.864Z,22.27
2023-01-15T13:11:30.055Z,21.60
2023-01-15T13:14:00.119Z,30.25
2023-01-15T13:16:35.840Z,15.45
2023-01-15T13:19:09.301Z,16.37
2023-01-15T13:21:39.146Z,15.73
2023-01-15T13:24:37.726Z,19.98
2023-01-15T13:27:29.534Z,15.00
2023-01-15T13:30:21.485Z,15.00
2023-01-15T13:32:51.989Z,16.15
2023-01-15T13:35:39.601Z,19.25
2023-01-15T13:38:16.970Z,17.55
2023-01-15T13:40:50.420Z,16.50
2023-01-15T13:43:43.618Z,15.23
2023-01-15T13:46:13.669Z,13.52
2023-01-15T13:48:44.524Z,17.08
2023-01-15T13:51:39.196Z,18.27
2023-01-15T13:54:14.323Z,23.67
2023-01-15T13:56:42.044Z,15.43
2023-01-15T13:59:38.616Z,15.25
2023-01-15T14:02:25.745Z,16.33
2023-01-15T14:04:53.832Z,15.85
2023-01-15T14:07:31.008Z,15.23
2023-01-15T14:10:17.137Z,16.05
2023-01-15T14:13:02.816Z,20.05
2023-01-15T14:16:01.841Z,17.92
2023-01-15T14:19:08.143Z,16.85
2023-01-15T14:21:48.835Z,25.70
2023-01-15T14:24:34.703Z,20.50
2023-01-15T14:27:08.205Z,15.40
2023-01-15T14:29:38.228Z,18.58
2023-01-15T14:32:18.452Z,24.27
2023-01-15T14:34:54.955Z,15.40
2023-01-15T14:37:26.748Z,17.85
2023-01-15T14:39:58.806Z,18.55
2023-01-15T14:42:48.828Z,17.50
2023-01-15T14:45:50.024Z,19.83
2023-01-15T14:48:29.641Z,17.33
2023-01-15T14:51:12.691Z,18.60
2023-01-15T14:53:45.033Z,29.15
2023-01-15T14:56:19.663Z,25.15
2023-01-15T14:58:53.159Z,23.05
2023-01-15T15:01:38.484Z,26.15
2023-01-15T15:04:13.800Z,22.33
2023-01-15T15:06:47.705Z,28.02
2023-01-15T15:09:27.002Z,19.55
2023-01-15T15:12:13.543Z,23.05
2023-01-15T15:14:41.031Z,17.48
2023-01-15T15:17:22.083Z,24.50
2023-01-15T15:19:57.437Z,24.75
2023-01-15T15:22:28.783Z,25.10
2023-01-15T15:24:56.632Z,23.15
2023-01-15T15:27:24.437Z,27.27
2023-01-15T15:29:53.405Z,27.25
2023-01-15T15:32:22.448Z,48.13
2023-01-15T15:34:51.463Z,84.93
2023-01-15T15:37:27.371Z,23.92
2023-01-15T15:40:17.747Z,23.25
2023-01-15T15:43:54.686Z,27.50
2023-01-15T15:46:46.765Z,27.17
2023-01-15T15:49:14.571Z,26.33
2023-01-15T15:51:48.985Z,49.85
2023-01-15T15:54:21.495Z,35.22
2023-01-15T15:57:07.080Z,47.35
2023-01-15T15:59:39.135Z,29.92
2023-01-15T16:02:21.669Z,26.02
2023-01-15T16:04:53.869Z,40.97
2023-01-15T16:07:29.768Z,39.00
2023-01-15T16:09:59.747Z,32.50
2023-01-15T16:12:31.937Z,37.72
2023-01-15T16:14:59.790Z,29.17
2023-01-15T16:17:28.098Z,31.33
2023-01-15T16:19:56.755Z,44.03
2023-01-15T16:22:44.174Z,35.38
2023-01-15T16:25:26.132Z,37.55
2023-01-15T16:27:53.744Z,44.05
2023-01-15T16:30:21.079Z,35.72
2023-01-15T16:32:49.277Z,29.27
2023-01-15T16:35:20.307Z,26.10
2023-01-15T16:37:49.839Z,34.28
2023-01-15T16:40:28.001Z,35.78
2023-01-15T16:43:04.236Z,32.10
2023-01-15T16:45:32.135Z,34.00
2023-01-15T16:48:08.264Z,30.95
2023-01-15T16:50:37.685Z,36.10
2023-01-15T16:53:06.665Z,34.42
2023-01-15T16:55:33.667Z,34.15
2023-01-15T16:58:22.430Z,40.75
2023-01-15T17:00:55.538Z,32.60
2023-01-15T17:03:25.121Z,33.27
2023-01-15T17:05:56.202Z,30.00
2023-01-15T17:08:38.704Z,32.65
2023-01-15T17:11:15.926Z,31.52
2023-01-15T17:13:43.333Z,30.45
2023-01-15T17:16:13.157Z,51.25
2023-01-15T17:18:40.575Z,35.70
2023-01-15T17:21:14.339Z,36.33
2023-01-15T17:23:42.986Z,42.47
2023-01-15T17:26:21.890Z,38.40
2023-01-15T17:28:50.200Z,40.63
2023-01-15T17:31:34.156Z,36.35
2023-01-15T17:34:02.597Z,35.23
2023-01-15T17:36:30.552Z,38.47
2023-01-15T17:38:57.716Z,41.47
2023-01-15T17:41:24.959Z,39.60
2023-01-15T17:43:52.445Z,38.67
2023-01-15T17:46:19.624Z,40.05
2023-01-15T17:48:46.761Z,35.42
2023-01-15T17:51:15.670Z,40.47
2023-01-15T17:53:43.144Z,37.10
2023-01-15T17:56:28.718Z,39.33
2023-01-15T17:59:14.140Z,54.38
2023-01-15T18:02:02.684Z,44.30
2023-01-15T18:04:52.187Z,42.55
2023-01-15T18:07:21.712Z,46.20
2023-01-15T18:09:50.409Z,33.47
2023-01-15T18:12:17.530Z,35.70
2023-01-15T18:14:44.744Z,38.20
2023-01-15T18:17:12.188Z,40.15
2023-01-15T18:19:39.340Z,39.33
2023-01-15T18:22:06.464Z,41.53
2023-01-15T18:24:33.914Z,37.90
2023-01-15T18:27:00.987Z,41.30
2023-01-15T18:29:28.256Z,42.42
2023-01-15T18:31:55.658Z,41.63
2023-01-15T18:34:22.832Z,42.03
2023-01-15T18:36:50.041Z,41.40
2023-01-15T18:39:17.530Z,44.38
2023-01-15T18:41:44.649Z,41.13
2023-01-15T18:44:32.964Z,43.05
2023-01-15T18:47:12.630Z,41.42
2023-01-15T18:49:40.945Z,52.17
2023-01-15T18:52:28.202Z,47.97
2023-01-15T18:54:55.414Z,45.55
2023-01-15T18:57:23.179Z,53.15
2023-01-15T18:59:50.668Z,78.87
2023-01-15T19:02:19.314Z,60.90
2023-01-15T19:04:47.864Z,45.95
2023-01-15T19:07:15.799Z,55.22
2023-01-15T19:09:42.887Z,62.53
2023-01-15T19:12:10.548Z,60.65
2023-01-15T19:14:55.905Z,56.42
2023-01-15T19:17:43.717Z,49.13
2023-01-15T19:20:16.451Z,59.47
2023-01-15T19:22:59.197Z,56.97
2023-01-15T19:25:31.719Z,59.45
2023-01-15T19:27:59.706Z,46.30
2023-01-15T19:30:27.795Z,46.90
2023-01-15T19:32:55.721Z,47.53
2023-01-15T19:35:23.104Z,53.13
2023-01-15T19:37:50.257Z,44.85
2023-01-15T19:40:22.049Z,43.00
2023-01-15T19:43:09.538Z,44.47
2023-01-15T19:46:00.509Z,51.30
2023-01-15T19:49:00.087Z,53.95
2023-01-15T19:51:47.125Z,52.30
2023-01-15T19:54:14.953Z,56.75
2023-01-15T19:56:42.492Z,73.80
2023-01-15T19:59:09.542Z,62.88
2023-01-15T20:01:37.157Z,66.00
2023-01-15T20:04:04.765Z,72.40
2023-01-15T20:06:31.924Z,76.37
2023-01-15T20:08:59.141Z,93.10
2023-01-15T20:11:46.509Z,66.50
2023-01-15T20:14:13.811Z,59.53
2023-01-15T20:16:41.352Z,56.20
2023-01-15T20:19:08.469Z,55.72
2023-01-15T20:21:35.557Z,59.97
2023-01-15T20:24:05.310Z,50.67
2023-01-15T20:26:32.383Z,60.38
2023-01-15T20:28:59.464Z,85.43
2023-01-15T20:31:27.645Z,58.58
2023-01-15T20:33:57.727Z,42.83
2023-01-15T20:36:24.767Z,41.28
2023-01-15T20:38:52.163Z,43.72
2023-01-15T20:41:37.479Z,34.70
2023-01-15T20:44:23.912Z,31.45
2023-01-15T20:46:51.540Z,35.35
2023-01-15T20:49:25.173Z,40.90
2023-01-15T20:51:52.886Z,32.20
2023-01-15T20:54:21.448Z,37.33
2023-01-15T20:56:48.518Z,40.10
2023-01-15T20:59:15.575Z,38.58
2023-01-15T21:01:43.150Z,42.15
2023-01-15T21:04:10.695Z,49.75
2023-01-15T21:06:37.870Z,46.92
2023-01-15T21:09:06.054Z,46.92
2023-01-15T21:11:33.183Z,46.05
2023-01-15T21:14:00.230Z,41.80
2023-01-15T21:16:27.706Z,38.55
2023-01-15T21:18:54.826Z,39.67
2023-01-15T21:21:22.696Z,47.95
2023-01-15T21:23:50.387Z,46.72
2023-01-15T21:26:17.687Z,40.80
2023-01-15T21:28:44.853Z,37.33
2023-01-15T21:31:14.298Z,36.65
2023-01-15T21:33:41.647Z,36.42
2023-01-15T21:36:11.374Z,34.67
2023-01-15T21:38:39.195Z,32.95
2023-01-15T21:41:12.297Z,34.70
2023-01-15T21:43:59.055Z,27.50
2023-01-15T21:46:29.269Z,39.67
2023-01-15T21:48:58.467Z,29.55
2023-01-15T21:51:26.785Z,29.20
2023-01-15T21:53:54.253Z,35.03
2023-01-15T21:56:21.726Z,33.92
2023-01-15T21:58:48.794Z,32.08
2023-01-15T22:01:18.035Z,33.78
2023-01-15T22:03:46.116Z,30.23
2023-01-15T22:06:13.318Z,35.22
2023-01-15T22:08:40.616Z,40.83
2023-01-15T22:11:09.870Z,33.20
2023-01-15T22:13:38.071Z,34.25
2023-01-15T22:16:05.457Z,35.88
2023-01-15T22:18:33.877Z,32.30
2023-01-15T22:21:02.146Z,38.80
2023-01-15T22:23:29.406Z,35.13
2023-01-15T22:25:56.796Z,54.60
2023-01-15T22:28:23.952Z,57.45
2023-01-15T22:30:51.132Z,51.05
2023-01-15T22:33:18.623Z,40.92
2023-01-15T22:35:56.244Z,35.13
2023-01-15T22:38:23.674Z,53.42
2023-01-15T22:40:50.892Z,50.42
2023-01-15T22:43:18.223Z,45.60
2023-01-15T22:45:45.619Z,47.38
2023-01-15T22:48:12.817Z,37.78
2023-01-15T22:50:40.077Z,38.05
2023-01-15T22:53:07.759Z,35.33
2023-01-15T22:55:34.889Z,39.80
2023-01-15T22:58:02.102Z,32.10
2023-01-15T23:00:29.466Z,42.55
2023-01-15T23:03:04.669Z,38.45
2023-01-15T23:05:37.121Z,36.33
2023-01-15T23:08:04.356Z,34.05
2023-01-15T23:10:31.728Z,40.25
2023-01-15T23:12:58.809Z,34.50
2023-01-15T23:15:25.929Z,29.73
2023-01-15T23:17:53.249Z,30.88
2023-01-15T23:20:20.371Z,31.27
2023-01-15T23:22:47.444Z,32.53
2023-01-15T23:25:14.862Z,35.70
2023-01-15T23:27:41.957Z,31.12
2023-01-15T23:30:09.792Z,32.70
2023-01-15T23:32:39.614Z,35.97
2023-01-15T23:35:07.876Z,28.42
2023-01-15T23:37:34.954Z,36.30
2023-01-15T23:40:02.367Z,33.03
2023-01-15T23:42:48.147Z,28.30
2023-01-15T23:45:33.842Z,29.95
2023-01-15T23:48:00.960Z,30.67
2023-01-15T23:50:28.289Z,31.25
2023-01-15T23:52:55.369Z,29.92
2023-01-15T23:55:22.496Z,29.73
2023-01-15T23:57:49.858Z,28.83
